createdAt,value
2022-08-05T00:01:36.511Z,101043.83
2022-08-05T00:04:18.844Z,101041.71
2022-08-05T00:06:47.569Z,101033.64
2022-08-05T00:09:20.800Z,101030.44
2022-08-05T00:11:55.608Z,101027.77
2022-08-05T00:14:29.340Z,101029.44
2022-08-05T00:17:01.832Z,101026.66
2022-08-05T00:19:33.683Z,101022.33
2022-08-05T00:22:11.209Z,101024.65
2022-08-05T00:24:42.629Z,101017.70
2022-08-05T00:27:13.995Z,101016.27
2022-08-05T00:29:45.563Z,101014.58
2022-08-05T00:32:15.345Z,101009.25
2022-08-05T00:35:03.842Z,101004.70
2022-08-05T00:37:53.547Z,101000.60
2022-08-05T00:40:29.290Z,100999.08
2022-08-05T00:43:01.996Z,100999.06
2022-08-05T00:45:42.958Z,101000.54
2022-08-05T00:48:31.197Z,100998.17
2022-08-05T00:51:00.495Z,100994.84
2022-08-05T00:54:01.456Z,100995.51
2022-08-05T00:56:26.623Z,100996.75
2022-08-05T00:58:56.222Z,100992.17
2022-08-05T01:01:42.928Z,100993.94
2022-08-05T01:04:15.859Z,100990.78
2022-08-05T01:06:48.769Z,100990.17
2022-08-05T01:09:20.113Z,100989.00
2022-08-05T01:11:56.322Z,100986.05
2022-08-05T01:14:31.612Z,100984.84
2022-08-05T01:17:32.145Z,100982.05
2022-08-05T01:21:08.371Z,100979.63
2022-08-05T01:24:13.079Z,100979.34
2022-08-05T01:27:24.226Z,100978.27
2022-08-05T01:29:58.772Z,100981.00
2022-08-05T01:32:32.263Z,100988.39
2022-08-05T01:35:53.316Z,100992.30
2022-08-05T01:38:08.965Z,100995.52
2022-08-05T01:40:55.985Z,100996.83
2022-08-05T01:43:28.454Z,100994.59
2022-08-05T01:46:07.242Z,100992.23
2022-08-05T01:48:49.717Z,100993.05
2022-08-05T01:51:19.275Z,100993.50
2022-08-05T01:53:56.989Z,100992.17
2022-08-05T01:58:11.071Z,100998.50
2022-08-05T01:59:23.336Z,100992.59
2022-08-05T02:01:55.601Z,100990.42
2022-08-05T02:04:29.961Z,100989.73
2022-08-05T02:06:59.493Z,100989.66
2022-08-05T02:09:28.675Z,100987.30
2022-08-05T02:12:07.116Z,100986.16
2022-08-05T02:14:53.171Z,100988.27
2022-08-05T02:18:30.888Z,100986.14
2022-08-05T02:21:15.643Z,100983.73
2022-08-05T02:23:50.562Z,100980.27
2022-08-05T02:26:28.647Z,100979.64
2022-08-05T02:28:58.643Z,100981.86
2022-08-05T02:31:34.613Z,100982.42
2022-08-05T02:34:15.823Z,100979.71
2022-08-05T02:36:55.580Z,100981.45
2022-08-05T02:39:28.124Z,100981.99
2022-08-05T02:42:01.183Z,100988.89
2022-08-05T02:44:34.537Z,100994.03
2022-08-05T02:47:08.342Z,100993.20
2022-08-05T02:49:42.508Z,100988.14
2022-08-05T02:52:29.326Z,100991.89
2022-08-05T02:55:05.531Z,100999.79
2022-08-05T02:58:12.349Z,101002.05
2022-08-05T03:00:29.618Z,101003.33
2022-08-05T03:03:00.283Z,100999.49
2022-08-05T03:06:53.761Z,101004.48
2022-08-05T03:08:27.182Z,101011.35
2022-08-05T03:11:45.939Z,101014.95
2022-08-05T03:13:51.413Z,101009.87
2022-08-05T03:16:31.969Z,101007.95
2022-08-05T03:19:04.263Z,101008.67
2022-08-05T03:21:48.761Z,101008.84
2022-08-05T03:24:30.028Z,101010.08
2022-08-05T03:27:01.156Z,101013.14
2022-08-05T03:29:45.748Z,101016.17
2022-08-05T03:32:20.457Z,101019.81
2022-08-05T03:34:51.040Z,101016.58
2022-08-05T03:37:22.987Z,100999.80
2022-08-05T03:40:04.037Z,101009.95
2022-08-05T03:42:51.474Z,101017.29
2022-08-05T03:45:23.412Z,101019.48
2022-08-05T03:47:56.836Z,101019.19
2022-08-05T03:50:46.751Z,101015.52
2022-08-05T03:55:52.226Z,101017.95
2022-08-05T03:56:50.334Z,101012.66
2022-08-05T03:59:47.388Z,101012.80
2022-08-05T04:02:37.911Z,101011.53
2022-08-05T04:05:12.905Z,101012.52
2022-08-05T04:07:57.130Z,101013.39
2022-08-05T04:10:33.252Z,101018.17
2022-08-05T04:13:08.662Z,101014.34
2022-08-05T04:15:37.958Z,101015.05
2022-08-05T04:18:25.779Z,101018.14
2022-08-05T04:20:58.430Z,101019.14
2022-08-05T04:24:05.719Z,101021.04
2022-08-05T04:26:19.049Z,101019.08
2022-08-05T04:28:51.688Z,101017.17
2022-08-05T04:31:21.348Z,101020.27
2022-08-05T04:34:19.125Z,101017.23
2022-08-05T04:36:49.626Z,101018.10
2022-08-05T04:39:20.627Z,101014.23
2022-08-05T04:41:52.427Z,101020.79
2022-08-05T04:44:56.645Z,101016.98
2022-08-05T04:47:25.733Z,101022.23
2022-08-05T04:50:03.087Z,101021.01
2022-08-05T04:53:15.509Z,101017.11
2022-08-05T04:56:15.490Z,101003.63
2022-08-05T05:18:36.292Z,100985.69
2022-08-05T05:21:06.211Z,100995.34
2022-08-05T05:23:39.537Z,101008.32
2022-08-05T05:48:09.228Z,101002.63
2022-08-05T07:44:14.391Z,100962.65
2022-08-05T07:54:47.702Z,100956.11
2022-08-05T08:26:17.558Z,100958.17
2022-08-05T08:34:01.366Z,100946.09
2022-08-05T08:36:48.803Z,100950.48
2022-08-05T09:03:24.775Z,100927.31
2022-08-05T09:10:11.902Z,100924.33
2022-08-05T09:12:41.415Z,100926.06
2022-08-05T09:15:11.480Z,100922.36
2022-08-05T09:17:49.416Z,100917.00
2022-08-05T09:20:36.467Z,100919.48
2022-08-05T09:23:19.484Z,100924.58
2022-08-05T09:26:20.512Z,100926.79
2022-08-05T09:28:50.139Z,100924.66
2022-08-05T09:31:44.125Z,100926.83
2022-08-05T09:34:13.016Z,100925.55
2022-08-05T09:36:56.317Z,100913.47
2022-08-05T09:39:41.632Z,100918.58
2022-08-05T09:42:24.389Z,100921.07
2022-08-05T09:45:17.468Z,100920.06
2022-08-05T09:47:57.685Z,100916.05
2022-08-05T09:50:44.563Z,100916.26
2022-08-05T09:53:26.044Z,100908.73
2022-08-05T09:56:12.608Z,100908.50
2022-08-05T09:58:42.387Z,100911.22
2022-08-05T10:01:15.209Z,100904.95
2022-08-05T10:04:10.243Z,100913.61
2022-08-05T10:06:59.036Z,100907.95
2022-08-05T10:09:29.581Z,100909.42
2022-08-05T10:12:30.337Z,100913.68
2022-08-05T10:15:20.980Z,100908.65
2022-08-05T10:18:20.310Z,100909.84
2022-08-05T10:20:56.985Z,100910.94
2022-08-05T10:23:55.304Z,100902.88
2022-08-05T10:26:18.059Z,100900.36
2022-08-05T10:28:48.241Z,100893.16
2022-08-05T10:32:50.784Z,100892.15
2022-08-05T10:34:08.893Z,100897.77
2022-08-05T10:36:39.894Z,100895.08
2022-08-05T10:39:24.502Z,100888.45
2022-08-05T10:42:11.327Z,100890.58
2022-08-05T10:44:46.552Z,100887.02
2022-08-05T10:47:26.127Z,100884.96
2022-08-05T10:50:33.238Z,100892.77
2022-08-05T10:53:01.712Z,100890.84
2022-08-05T10:55:38.531Z,100886.86
2022-08-05T10:58:21.287Z,100884.49
2022-08-05T11:00:55.294Z,100882.45
2022-08-05T11:03:32.610Z,100875.14
2022-08-05T11:06:15.974Z,100875.64
2022-08-05T11:09:32.354Z,100878.74
2022-08-05T11:12:41.225Z,100856.56
2022-08-05T11:16:00.577Z,100872.83
2022-08-05T11:18:34.655Z,100871.91
2022-08-05T11:21:11.216Z,100877.01
2022-08-05T11:28:23.267Z,100864.13
2022-08-05T11:30:58.715Z,100862.93
2022-08-05T11:34:09.278Z,100870.85
2022-08-05T11:36:53.021Z,100869.45
2022-08-05T11:40:00.766Z,100869.70
2022-08-05T11:44:00.932Z,100875.21
2022-08-05T11:46:30.915Z,100875.09
2022-08-05T11:49:05.527Z,100851.27
2022-08-05T11:51:43.594Z,100856.63
2022-08-05T11:54:40.583Z,100861.09
2022-08-05T12:05:17.939Z,100851.33
2022-08-05T12:08:08.073Z,100847.05
2022-08-05T12:11:48.161Z,100845.67
2022-08-05T12:15:59.527Z,100836.67
2022-08-05T12:18:33.328Z,100838.23
2022-08-05T12:21:47.254Z,100832.80
2022-08-05T12:25:56.902Z,100830.55
2022-08-05T12:29:37.968Z,100826.84
2022-08-05T12:33:26.973Z,100819.81
2022-08-05T12:37:42.653Z,100820.59
2022-08-05T12:42:21.042Z,100821.75
2022-08-05T12:44:50.201Z,100816.34
2022-08-05T12:47:32.770Z,100811.09
2022-08-05T12:52:18.778Z,100812.89
2022-08-05T12:57:01.668Z,100809.15
2022-08-05T13:02:01.081Z,100807.79
2022-08-05T13:24:27.779Z,100794.58
2022-08-05T13:27:10.909Z,100792.61
2022-08-05T13:29:40.073Z,100790.77
2022-08-05T13:32:35.119Z,100785.47
2022-08-05T13:35:09.859Z,100783.55
2022-08-05T13:37:38.501Z,100785.38
2022-08-05T13:40:16.400Z,100785.58
2022-08-05T13:42:49.045Z,100780.21
2022-08-05T13:45:43.200Z,100774.44
2022-08-05T13:48:58.070Z,100774.92
2022-08-05T13:59:55.580Z,100775.53
2022-08-05T14:02:29.877Z,100785.09
2022-08-05T14:08:41.131Z,100785.16
2022-08-05T14:11:20.201Z,100788.09
2022-08-05T14:14:34.648Z,100788.42
2022-08-05T14:17:04.825Z,100784.97
2022-08-05T14:20:31.320Z,100782.91
2022-08-05T14:23:00.562Z,100781.20
2022-08-05T14:25:31.363Z,100778.34
2022-08-05T14:28:00.097Z,100773.40
2022-08-05T14:30:29.906Z,100776.17
2022-08-05T14:32:59.019Z,100777.63
2022-08-05T14:35:37.492Z,100777.19
2022-08-05T14:38:32.093Z,100772.98
2022-08-05T14:41:07.243Z,100778.01
2022-08-05T14:44:00.310Z,100772.71
2022-08-05T14:48:33.486Z,100768.77
2022-08-05T14:51:03.228Z,100774.75
2022-08-05T14:53:31.968Z,100776.90
2022-08-05T14:56:13.511Z,100770.65
2022-08-05T14:58:47.543Z,100769.90
2022-08-05T15:02:14.927Z,100768.58
2022-08-05T15:04:47.936Z,100766.12
2022-08-05T15:08:04.548Z,100761.52
2022-08-05T15:10:46.223Z,100763.69
2022-08-05T15:15:55.747Z,100762.16
2022-08-05T15:19:52.877Z,100759.59
2022-08-05T15:23:38.879Z,100758.38
2022-08-05T15:26:08.411Z,100753.30
2022-08-05T15:28:38.393Z,100753.02
2022-08-05T15:31:11.975Z,100755.44
2022-08-05T15:34:18.848Z,100754.60
2022-08-05T15:36:38.672Z,100757.11
2022-08-05T15:40:59.222Z,100755.46
2022-08-05T15:41:59.098Z,100752.11
2022-08-05T15:44:31.235Z,100748.80
2022-08-05T15:47:06.154Z,100748.06
2022-08-05T15:49:53.686Z,100746.83
2022-08-05T15:52:51.561Z,100744.34
2022-08-05T15:55:16.678Z,100752.98
2022-08-05T15:57:48.838Z,100759.13
2022-08-05T16:00:26.311Z,100758.01
2022-08-05T16:03:01.600Z,100755.03
2022-08-05T16:05:30.983Z,100753.90
2022-08-05T16:08:00.065Z,100754.00
2022-08-05T16:10:28.969Z,100756.64
2022-08-05T16:12:57.969Z,100757.13
2022-08-05T16:15:32.709Z,100758.91
2022-08-05T16:18:04.237Z,100757.54
2022-08-05T16:20:41.648Z,100753.76
2022-08-05T16:23:10.521Z,100757.89
2022-08-05T16:28:04.948Z,100750.88
2022-08-05T16:30:36.103Z,100755.48
2022-08-05T16:33:05.172Z,100757.27
2022-08-05T16:35:41.936Z,100758.09
2022-08-05T16:38:18.448Z,100757.56
2022-08-05T16:41:01.484Z,100754.69
2022-08-05T16:43:34.143Z,100752.30
2022-08-05T16:46:23.637Z,100756.14
2022-08-05T16:48:53.456Z,100754.75
2022-08-05T16:51:42.296Z,100754.84
2022-08-05T16:54:17.473Z,100754.35
2022-08-05T16:56:52.230Z,100751.54
2022-08-05T16:59:20.866Z,100750.99
2022-08-05T17:01:54.203Z,100754.60
2022-08-05T17:04:28.056Z,100755.61
2022-08-05T17:07:01.475Z,100757.73
2022-08-05T17:09:56.055Z,100763.39
2022-08-05T17:12:22.735Z,100767.45
2022-08-05T17:15:55.694Z,100766.16
2022-08-05T17:18:36.457Z,100765.42
2022-08-05T17:21:17.378Z,100765.54
2022-08-05T17:24:05.035Z,100766.77
2022-08-05T17:27:12.729Z,100770.58
2022-08-05T17:29:45.724Z,100770.27
2022-08-05T17:32:17.696Z,100770.70
2022-08-05T17:37:41.005Z,100778.73
2022-08-05T17:40:41.484Z,100781.88
2022-08-05T17:43:11.725Z,100778.73
2022-08-05T17:47:53.470Z,100784.52
2022-08-05T17:52:06.301Z,100791.70
2022-08-05T17:54:35.937Z,100798.07
2022-08-05T17:57:05.650Z,100805.92
2022-08-05T17:59:43.537Z,100807.55
2022-08-05T18:02:13.255Z,100813.28
2022-08-05T18:04:51.206Z,100813.40
2022-08-05T18:07:22.349Z,100816.56
2022-08-05T18:09:59.895Z,100814.95
2022-08-05T18:12:29.384Z,100815.36
2022-08-05T18:14:58.959Z,100822.95
2022-08-05T18:17:59.644Z,100827.17
2022-08-05T18:20:16.312Z,100827.91
2022-08-05T18:22:54.765Z,100830.45
2022-08-05T18:25:59.687Z,100826.84
2022-08-05T18:28:28.618Z,100833.15
2022-08-05T18:30:57.322Z,100838.55
2022-08-05T18:33:26.051Z,100840.11
2022-08-05T18:36:11.881Z,100843.81
2022-08-05T18:38:44.296Z,100845.16
2022-08-05T18:41:58.151Z,100845.64
2022-08-05T18:44:34.907Z,100847.35
2022-08-05T18:47:04.362Z,100849.65
2022-08-05T18:49:57.806Z,100851.66
2022-08-05T18:52:50.813Z,100850.75
2022-08-05T18:55:22.249Z,100848.97
2022-08-05T18:57:53.825Z,100848.09
2022-08-05T19:00:29.235Z,100847.13
2022-08-05T19:03:07.428Z,100846.71
2022-08-05T19:06:11.915Z,100843.50
2022-08-05T19:08:30.999Z,100844.48
2022-08-05T19:11:04.517Z,100844.29
2022-08-05T19:13:35.638Z,100844.98
2022-08-05T19:16:24.421Z,100844.16
2022-08-05T19:19:32.075Z,100839.79
2022-08-05T19:22:03.094Z,100835.35
2022-08-05T19:24:34.415Z,100835.02
2022-08-05T19:27:08.286Z,100833.23
2022-08-05T19:29:50.300Z,100834.49
2022-08-05T19:32:19.529Z,100836.65
2022-08-05T19:34:54.579Z,100836.02
2022-08-05T19:37:34.847Z,100831.69
2022-08-05T19:40:54.047Z,100837.05
2022-08-05T19:44:04.178Z,100840.34
2022-08-05T19:46:16.959Z,100834.95
2022-08-05T19:49:04.057Z,100828.44
2022-08-05T19:52:05.328Z,100829.68
2022-08-05T19:54:31.497Z,100829.19
2022-08-05T19:57:11.889Z,100826.52
2022-08-05T19:59:55.915Z,100826.63
2022-08-05T20:03:05.511Z,100817.91
2022-08-05T20:05:43.143Z,100816.68
2022-08-05T20:09:13.669Z,100823.69
2022-08-05T20:11:48.210Z,100829.00
2022-08-05T20:14:26.562Z,100829.04
2022-08-05T20:16:58.739Z,100827.06
2022-08-05T20:19:36.077Z,100826.77
2022-08-05T20:22:05.366Z,100827.48
2022-08-05T20:24:38.527Z,100825.40
2022-08-05T20:27:11.244Z,100829.37
2022-08-05T20:29:40.356Z,100825.52
2022-08-05T20:32:09.024Z,100823.83
2022-08-05T20:34:39.026Z,100827.48
2022-08-05T20:37:24.274Z,100829.00
2022-08-05T20:39:58.961Z,100831.52
2022-08-05T20:42:28.214Z,100831.02
2022-08-05T20:44:56.972Z,100829.58
2022-08-05T20:47:31.107Z,100828.92
2022-08-05T20:50:02.567Z,100825.77
2022-08-05T20:52:34.120Z,100825.29
2022-08-05T20:55:56.341Z,100823.70
2022-08-05T20:57:52.225Z,100820.05
2022-08-05T21:00:41.904Z,100819.45
2022-08-05T21:03:34.743Z,100821.88
2022-08-05T21:06:03.642Z,100822.65
2022-08-05T21:08:41.363Z,100823.02
2022-08-05T21:11:15.114Z,100824.42
2022-08-05T21:14:01.509Z,100820.28
2022-08-05T21:16:31.034Z,100819.89
2022-08-05T21:19:01.757Z,100823.20
2022-08-05T21:21:39.043Z,100824.10
2022-08-05T21:24:15.421Z,100824.06
2022-08-05T21:26:53.345Z,100824.98
2022-08-05T21:29:31.865Z,100831.42
2022-08-05T21:32:04.568Z,100833.45
2022-08-05T21:34:35.521Z,100835.34
2022-08-05T21:37:05.337Z,100826.98
2022-08-05T21:39:40.433Z,100825.79
2022-08-05T21:42:30.648Z,100821.14
2022-08-05T21:44:59.969Z,100819.05
2022-08-05T21:47:54.984Z,100814.17
2022-08-05T21:50:18.525Z,100813.45
2022-08-05T21:52:47.586Z,100816.21
2022-08-05T21:55:18.336Z,100812.42
2022-08-05T21:58:07.306Z,100814.98
2022-08-05T22:00:40.449Z,100817.55
2022-08-05T22:03:15.319Z,100821.48
2022-08-05T22:05:48.945Z,100821.96
2022-08-05T22:08:22.059Z,100820.14
2022-08-05T22:10:53.471Z,100814.84
2022-08-05T22:14:34.438Z,100818.26
2022-08-05T22:16:42.116Z,100818.67
2022-08-05T22:18:59.412Z,100822.23
2022-08-05T22:21:28.244Z,100826.06
2022-08-05T22:24:40.807Z,100823.08
2022-08-05T22:27:22.475Z,100821.38
2022-08-05T22:29:54.122Z,100819.55
2022-08-05T22:32:23.162Z,100814.92
2022-08-05T22:34:52.942Z,100817.15
2022-08-05T22:37:22.416Z,100816.81
2022-08-05T22:39:51.159Z,100817.28
2022-08-05T22:42:26.209Z,100819.58
2022-08-05T22:44:56.628Z,100824.17
2022-08-05T22:47:29.500Z,100822.26
2022-08-05T22:50:19.178Z,100818.59
2022-08-05T22:52:52.561Z,100814.05
2022-08-05T22:55:23.597Z,100816.89
2022-08-05T22:57:55.077Z,100816.40
2022-08-05T23:00:24.603Z,100816.11
2022-08-05T23:02:56.446Z,100817.13
2022-08-05T23:05:27.009Z,100820.71
2022-08-05T23:07:55.606Z,100820.54
2022-08-05T23:10:24.458Z,100822.45
2022-08-05T23:12:55.711Z,100822.30
2022-08-05T23:15:35.417Z,100819.23
2022-08-05T23:18:06.142Z,100819.79
2022-08-05T23:20:43.148Z,100812.23
2022-08-05T23:23:11.983Z,100813.02
2022-08-05T23:25:52.253Z,100814.58
2022-08-05T23:28:27.807Z,100813.95
2022-08-05T23:31:15.869Z,100811.54
2022-08-05T23:34:04.123Z,100811.58
2022-08-05T23:36:39.929Z,100807.92
2022-08-05T23:39:16.515Z,100811.50
2022-08-05T23:41:53.891Z,100810.36
2022-08-05T23:44:25.303Z,100810.75
2022-08-05T23:47:14.575Z,100814.96
2022-08-05T23:49:46.320Z,100815.58
2022-08-05T23:52:27.743Z,100816.51
2022-08-05T23:55:00.595Z,100817.41
2022-08-05T23:57:30.311Z,100815.73
